Time;durP1;ratioP1;P1;durP2;ratioP2;P2;SDS_P1;SDS_P2;PMS_P1;PMS_P2;Temp;Humidity;BMP_temperature;BMP_pressure;BME280_temperature;BME280_humidity;BME280_pressure;Samples;Min_cycle;Max_cycle;Signal;HPM_P1;HPM_P2
2021/11/12 00:13:33;;;;;;;99.00;28.13;;;5.50;99.90;;;;;;5027394;28;20060;-82
2021/11/12 00:16:02;;;;;;;89.35;25.65;;;5.50;99.90;;;;;;5036004;28;20032;-82
2021/11/12 00:18:29;;;;;;;223.60;35.03;;;5.50;99.90;;;;;;5029098;28;20057;-82
2021/11/12 00:20:56;;;;;;;131.65;29.50;;;5.60;99.90;;;;;;5023555;28;20021;-82
2021/11/12 00:23:23;;;;;;;136.75;30.88;;;5.60;99.90;;;;;;5018924;28;20040;-82
2021/11/12 00:25:50;;;;;;;93.85;27.23;;;5.60;99.90;;;;;;5029493;28;20033;-82
2021/11/12 00:28:19;;;;;;;89.20;28.50;;;5.60;99.90;;;;;;5021772;28;20044;-81
2021/11/12 00:31:00;;;;;;;106.38;27.67;;;5.70;99.90;;;;;;5032784;28;20026;-82
2021/11/12 00:38:52;;;;;;;80.47;27.02;;;5.70;99.90;;;;;;5029517;28;20044;-81
2021/11/12 00:41:37;;;;;;;83.82;25.02;;;5.70;99.90;;;;;;5031282;28;20029;-82
2021/11/12 00:44:20;;;;;;;78.47;26.52;;;5.80;99.90;;;;;;5044540;28;20025;-82
2021/11/12 00:46:50;;;;;;;;;;;5.80;99.90;;;;;;5033563;28;20080;-81
2021/11/12 00:49:21;;;;;;;85.00;27.15;;;5.70;99.90;;;;;;5037208;28;19917;-81
2021/11/12 00:51:50;;;;;;;87.53;28.20;;;5.70;99.90;;;;;;5027188;28;20072;-82
2021/11/12 00:54:17;;;;;;;86.45;28.75;;;5.80;99.90;;;;;;5030849;28;20515;-82
2021/11/12 00:56:43;;;;;;;92.63;29.08;;;5.70;99.90;;;;;;5026126;28;20061;-82
2021/11/12 00:59:09;;;;;;;80.20;28.58;;;5.80;99.90;;;;;;5028831;28;20048;-82
2021/11/12 01:01:38;;;;;;;93.88;28.95;;;5.80;99.90;;;;;;5029610;28;20022;-81
2021/11/12 01:04:07;;;;;;;74.03;29.10;;;5.90;99.90;;;;;;5031024;28;20455;-82
2021/11/12 01:06:35;;;;;;;95.90;29.65;;;5.90;99.90;;;;;;5027907;28;20451;-82
2021/11/12 01:09:02;;;;;;;88.47;30.70;;;5.80;99.90;;;;;;5026661;28;20473;-82
2021/11/12 01:11:28;;;;;;;101.80;26.65;;;5.80;99.90;;;;;;5030251;28;20463;-82
2021/11/12 01:13:53;;;;;;;87.10;28.15;;;5.80;99.90;;;;;;5030744;28;20076;-83
2021/11/12 01:16:20;;;;;;;119.72;30.38;;;5.80;99.90;;;;;;5025171;28;20036;-83
2021/11/12 01:18:46;;;;;;;68.60;26.23;;;5.80;99.90;;;;;;5034238;28;20026;-81
2021/11/12 01:21:16;;;;;;;84.35;27.35;;;5.80;99.90;;;;;;5027551;28;20026;-81
2021/11/12 01:23:45;;;;;;;84.03;27.10;;;5.70;99.90;;;;;;5027548;28;20108;-82
2021/11/12 01:26:11;;;;;;;67.07;23.33;;;5.70;99.90;;;;;;5031559;28;20029;-82
2021/11/12 01:28:38;;;;;;;91.28;28.17;;;5.70;99.90;;;;;;5030756;28;20088;-83
2021/11/12 01:31:03;;;;;;;69.32;27.67;;;5.70;99.90;;;;;;5036370;28;20447;-82
2021/11/12 01:33:30;;;;;;;81.80;26.17;;;5.80;99.90;;;;;;5033972;28;20092;-82
2021/11/12 01:36:02;;;;;;;86.50;28.10;;;5.80;99.90;;;;;;5044785;28;20430;-82
2021/11/12 01:38:28;;;;;;;65.15;26.17;;;5.80;99.90;;;;;;5020801;28;20053;-82
2021/11/12 01:40:54;;;;;;;73.22;25.63;;;5.80;99.90;;;;;;5030643;28;20252;-81
2021/11/12 01:43:23;;;;;;;77.80;26.70;;;5.80;99.90;;;;;;5028894;28;20034;-82
2021/11/12 01:46:06;;;;;;;63.97;26.10;;;5.80;99.90;;;;;;5028091;28;20525;-82
2021/11/12 01:48:48;;;;;;;68.80;26.55;;;5.80;99.90;;;;;;5032028;28;20029;-81
2021/11/12 02:01:30;;;;;;;66.45;25.85;;;5.80;99.90;;;;;;5027030;28;20072;-81
2021/11/12 02:03:55;;;;;;;62.75;26.10;;;5.80;99.90;;;;;;5036311;28;20033;-80
2021/11/12 02:06:22;;;;;;;63.30;25.70;;;5.80;99.90;;;;;;5025410;28;20041;-81
2021/11/12 02:08:49;;;;;;;59.42;24.38;;;5.80;99.90;;;;;;5036850;28;20037;-81
2021/11/12 02:11:16;;;;;;;58.65;25.92;;;5.80;99.90;;;;;;5029062;28;20104;-82
2021/11/12 02:13:43;;;;;;;60.45;25.33;;;5.80;99.90;;;;;;5019245;28;20471;-81
2021/11/12 02:16:12;;;;;;;59.80;24.45;;;5.80;99.90;;;;;;5021479;28;20470;-82
2021/11/12 02:18:41;;;;;;;53.53;24.85;;;5.80;99.90;;;;;;5032601;28;20113;-81
2021/11/12 02:21:29;;;;;;;60.33;23.88;;;5.80;99.90;;;;;;5027481;28;20064;-81
2021/11/12 02:24:03;;;;;;;67.10;25.95;;;5.80;99.90;;;;;;5027934;28;20057;-82
2021/11/12 02:26:32;;;;;;;67.97;26.65;;;5.80;99.90;;;;;;5028273;28;20037;-81
2021/11/12 02:28:58;;;;;;;63.58;27.35;;;5.80;99.90;;;;;;5034356;28;20037;-82
2021/11/12 02:31:27;;;;;;;69.65;28.45;;;5.80;99.90;;;;;;5025170;28;20026;-81
2021/11/12 02:33:55;;;;;;;70.32;27.17;;;5.80;99.90;;;;;;5029163;28;20029;-81
2021/11/12 02:36:21;;;;;;;70.47;27.00;;;5.90;99.90;;;;;;5025188;28;20090;-81
2021/11/12 02:38:53;;;;;;;59.38;25.50;;;5.90;99.90;;;;;;5026162;28;20140;-81
2021/11/12 02:41:20;;;;;;;63.10;26.75;;;5.90;99.90;;;;;;5034063;28;20033;-81
2021/11/12 02:43:48;;;;;;;71.00;26.20;;;5.90;99.90;;;;;;5017242;28;20046;-82
2021/11/12 02:46:19;;;;;;;76.53;27.00;;;5.90;99.90;;;;;;5030312;28;20052;-80
2021/11/12 02:48:45;;;;;;;67.35;27.17;;;5.90;99.90;;;;;;5023692;28;20045;-81
2021/11/12 02:51:16;;;;;;;65.72;26.08;;;5.90;99.90;;;;;;5025767;28;20029;-82
2021/11/12 02:53:42;;;;;;;57.88;25.20;;;5.90;99.90;;;;;;5021354;28;20033;-81
2021/11/12 02:56:15;;;;;;;65.25;25.63;;;5.80;99.90;;;;;;5039097;28;20120;-81
2021/11/12 02:58:41;;;;;;;63.78;26.10;;;5.80;99.90;;;;;;5019437;28;20033;-81
2021/11/12 03:01:09;;;;;;;49.85;23.67;;;5.80;99.90;;;;;;5032577;28;20072;-80
2021/11/12 03:03:35;;;;;;;56.40;23.33;;;5.70;99.90;;;;;;5032369;28;20445;-81
2021/11/12 03:06:00;;;;;;;55.88;23.42;;;5.80;99.90;;;;;;5036635;28;20038;-81
2021/11/12 03:08:27;;;;;;;53.13;24.00;;;5.80;99.90;;;;;;5035996;28;20106;-81
2021/11/12 03:10:55;;;;;;;58.05;25.15;;;5.70;99.90;;;;;;5022676;28;20494;-81
2021/11/12 03:13:22;;;;;;;64.75;24.38;;;5.80;99.90;;;;;;5020694;28;20249;-81
2021/11/12 03:15:48;;;;;;;57.55;24.38;;;5.80;99.90;;;;;;5031922;28;20108;-80
2021/11/12 03:18:14;;;;;;;54.30;23.63;;;5.80;99.90;;;;;;5023625;28;20032;-81
2021/11/12 03:20:40;;;;;;;55.63;23.73;;;5.80;99.90;;;;;;5031202;28;20036;-81
2021/11/12 03:23:09;;;;;;;49.90;23.48;;;5.80;99.90;;;;;;5036882;28;20529;-82
2021/11/12 03:28:13;;;;;;;54.03;24.23;;;5.80;99.90;;;;;;5023752;28;20025;-81
2021/11/12 03:31:17;;;;;;;56.63;23.10;;;5.80;99.90;;;;;;5029374;28;20021;-82
2021/11/12 04:00:52;;;;;;;50.75;23.30;;;5.80;99.90;;;;;;5033897;28;20083;-81
2021/11/12 04:03:25;;;;;;;44.77;22.77;;;5.80;99.90;;;;;;5036620;28;20389;-81
2021/11/12 04:06:23;;;;;;;48.92;22.75;;;5.80;99.90;;;;;;5027539;28;20037;-81
2021/11/12 04:17:24;;;;;;;54.13;24.05;;;5.80;99.90;;;;;;5032839;28;20044;-81
2021/11/12 04:20:16;;;;;;;54.67;21.63;;;5.80;99.90;;;;;;5029518;28;20025;-80
2021/11/12 04:50:00;;;;;;;53.65;18.52;;;5.60;99.90;;;;;;5028670;28;20040;-81
2021/11/12 05:13:57;;;;;;;89.53;21.35;;;5.40;99.90;;;;;;5037909;28;20112;-81
2021/11/12 05:46:13;;;;;;;73.43;17.83;;;5.10;99.90;;;;;;5031308;28;20032;-81
2021/11/12 05:56:51;;;;;;;40.13;15.65;;;5.00;99.90;;;;;;5032808;28;20403;-81
2021/11/12 05:59:17;;;;;;;38.15;16.45;;;5.00;99.90;;;;;;5035526;28;20029;-82
2021/11/12 06:01:45;;;;;;;28.67;15.57;;;5.00;99.90;;;;;;5026417;28;20483;-81
2021/11/12 06:04:11;;;;;;;42.92;17.48;;;5.00;99.90;;;;;;5048538;28;20549;-82
2021/11/12 06:06:36;;;;;;;28.02;15.38;;;5.00;99.90;;;;;;5041621;28;20103;-82
2021/11/12 06:09:04;;;;;;;25.67;15.48;;;5.00;99.90;;;;;;5039646;28;20037;-82
2021/11/12 06:11:31;;;;;;;49.40;18.08;;;5.00;99.90;;;;;;5036227;28;20030;-82
2021/11/12 06:13:58;;;;;;;35.33;15.38;;;5.00;99.90;;;;;;5030523;28;20053;-82
2021/11/12 06:16:26;;;;;;;53.92;16.55;;;5.00;99.90;;;;;;5038514;28;20038;-82
2021/11/12 06:18:51;;;;;;;38.40;16.95;;;5.00;99.90;;;;;;5032306;28;20025;-81
2021/11/12 06:21:17;;;;;;;59.08;17.02;;;5.00;99.90;;;;;;5045396;28;20395;-82
2021/11/12 06:23:43;;;;;;;42.20;16.15;;;5.00;99.90;;;;;;5029022;28;20579;-82
2021/11/12 06:26:09;;;;;;;48.05;18.27;;;5.00;99.90;;;;;;5040479;28;20672;-82
2021/11/12 06:28:36;;;;;;;47.33;16.35;;;5.00;99.90;;;;;;5016534;28;20067;-82
2021/11/12 06:31:02;;;;;;;58.00;17.67;;;5.00;99.90;;;;;;5039869;28;20029;-82
2021/11/12 06:33:29;;;;;;;39.90;15.77;;;5.00;99.90;;;;;;5038687;28;20086;-82
2021/11/12 06:35:55;;;;;;;47.53;16.67;;;5.00;99.90;;;;;;5037312;28;20021;-83
2021/11/12 06:38:24;;;;;;;43.25;15.68;;;5.00;99.90;;;;;;5038120;28;20040;-82
2021/11/12 06:40:50;;;;;;;44.55;16.88;;;4.90;99.90;;;;;;5039328;28;20030;-81
2021/11/12 06:43:29;;;;;;;41.88;15.52;;;4.90;99.90;;;;;;5041645;28;20025;-83
2021/11/12 06:51:39;;;;;;;30.25;15.57;;;4.70;99.90;;;;;;5029629;28;20056;-82
2021/11/12 06:54:05;;;;;;;32.88;15.40;;;4.70;99.90;;;;;;5023916;28;20034;-82
2021/11/12 06:56:31;;;;;;;50.17;16.35;;;4.70;99.90;;;;;;5044853;28;20158;-82
2021/11/12 06:58:56;;;;;;;43.97;14.98;;;4.70;99.90;;;;;;5018778;28;20113;-82
2021/11/12 07:01:24;;;;;;;31.27;14.55;;;4.70;99.90;;;;;;5017213;28;20029;-82
2021/11/12 07:03:50;;;;;;;42.97;16.13;;;4.70;99.90;;;;;;5028690;28;20025;-82
2021/11/12 07:06:16;;;;;;;48.58;15.02;;;4.60;99.90;;;;;;5027190;28;20033;-82
2021/11/12 07:08:43;;;;;;;37.25;16.48;;;4.60;99.90;;;;;;5030621;28;20694;-82
2021/11/12 07:11:10;;;;;;;33.78;14.95;;;4.60;99.90;;;;;;5016911;28;20034;-82
2021/11/12 07:13:36;;;;;;;37.92;14.93;;;4.60;99.90;;;;;;5012159;28;20117;-82
2021/11/12 07:16:02;;;;;;;51.78;16.88;;;4.70;99.90;;;;;;5027907;28;20034;-82
2021/11/12 07:18:28;;;;;;;38.25;16.38;;;4.70;99.90;;;;;;5012098;28;20478;-82
2021/11/12 07:20:55;;;;;;;37.10;16.08;;;4.70;99.90;;;;;;5025820;28;20057;-81
2021/11/12 07:23:23;;;;;;;44.78;16.73;;;4.70;99.90;;;;;;5029891;28;20046;-82
2021/11/12 07:25:49;;;;;;;52.90;15.35;;;4.70;99.90;;;;;;5030875;28;20040;-83
2021/11/12 07:28:15;;;;;;;30.13;14.40;;;4.70;99.90;;;;;;5031795;28;20037;-83
2021/11/12 07:30:43;;;;;;;29.85;14.40;;;4.70;99.90;;;;;;5035087;28;20044;-82
2021/11/12 07:33:12;;;;;;;56.45;16.33;;;4.70;99.90;;;;;;5040639;28;20031;-82
2021/11/12 07:35:49;;;;;;;33.65;14.10;;;4.80;99.90;;;;;;5041878;28;20044;-81
2021/11/12 07:38:20;;;;;;;46.90;15.88;;;4.80;99.90;;;;;;5041502;28;20040;-81
2021/11/12 07:41:01;;;;;;;28.92;15.15;;;4.80;99.90;;;;;;5048083;28;20036;-83
2021/11/12 07:48:55;;;;;;;54.67;17.17;;;4.80;99.90;;;;;;5029916;28;20040;-83
2021/11/12 07:51:21;;;;;;;37.03;16.88;;;4.80;99.90;;;;;;5014633;28;20022;-82
2021/11/12 07:53:47;;;;;;;44.42;16.05;;;4.80;99.90;;;;;;5035415;28;20406;-83
2021/11/12 07:56:14;;;;;;;36.30;16.80;;;4.80;99.90;;;;;;5047137;28;20024;-83
2021/11/12 07:58:39;;;;;;;33.25;16.15;;;4.80;99.90;;;;;;5037803;28;20084;-83
2021/11/12 08:01:05;;;;;;;33.80;15.70;;;4.80;99.90;;;;;;5031136;28;20474;-82
2021/11/12 08:03:31;;;;;;;40.97;17.00;;;4.80;99.90;;;;;;5031915;28;20030;-82
2021/11/12 08:05:58;;;;;;;34.22;15.82;;;4.80;99.90;;;;;;5030185;28;20025;-83
2021/11/12 08:08:25;;;;;;;28.50;15.98;;;4.90;99.90;;;;;;5030346;28;20040;-82
2021/11/12 08:11:02;;;;;;;31.73;16.65;;;4.90;99.90;;;;;;5022976;28;20027;-82
2021/11/12 08:13:35;;;;;;;44.60;16.27;;;4.90;99.90;;;;;;5030020;28;20484;-82
2021/11/12 08:16:18;;;;;;;32.25;16.10;;;4.90;99.90;;;;;;5026098;28;20040;-82
2021/11/12 08:18:50;;;;;;;29.83;16.98;;;4.90;99.90;;;;;;5010773;28;20468;-81
2021/11/12 08:21:23;;;;;;;48.97;17.38;;;4.90;99.90;;;;;;5026912;28;20120;-82
2021/11/12 08:24:00;;;;;;;45.97;18.00;;;4.90;99.90;;;;;;5025632;28;20079;-83
2021/11/12 08:26:42;;;;;;;40.75;16.42;;;4.90;99.90;;;;;;5013388;28;20034;-81
2021/11/12 08:32:10;;;;;;;40.05;17.60;;;4.90;99.90;;;;;;5029417;28;20034;-82
2021/11/12 08:35:31;;;;;;;34.63;17.98;;;4.90;99.90;;;;;;5015193;28;20462;-82
2021/11/12 08:37:42;;;;;;;52.10;17.15;;;4.90;99.90;;;;;;5014417;28;20421;-82
2021/11/12 08:40:18;;;;;;;26.83;15.80;;;4.90;99.90;;;;;;5026022;28;20517;-82
2021/11/12 08:42:52;;;;;;;26.13;15.82;;;4.90;99.90;;;;;;5021845;28;20099;-82
2021/11/12 08:45:21;;;;;;;38.65;17.25;;;4.90;99.90;;;;;;5027757;28;20721;-82
2021/11/12 08:47:58;;;;;;;34.60;16.73;;;4.90;99.90;;;;;;5040138;28;20048;-82
2021/11/12 08:50:24;;;;;;;39.92;17.95;;;5.00;99.90;;;;;;5050744;28;20086;-82
2021/11/12 08:52:52;;;;;;;27.65;17.60;;;5.00;99.90;;;;;;5030279;28;20048;-82
2021/11/12 08:55:27;;;;;;;30.15;17.25;;;5.10;99.90;;;;;;5028860;28;20026;-82
2021/11/12 08:57:55;;;;;;;41.20;18.45;;;5.20;99.90;;;;;;5028669;28;20022;-81
2021/11/12 09:00:20;;;;;;;32.92;17.27;;;5.20;99.90;;;;;;5024363;28;20439;-82
2021/11/12 09:02:49;;;;;;;33.30;18.95;;;5.20;99.90;;;;;;5029438;28;20036;-81
2021/11/12 09:05:17;;;;;;;36.05;19.20;;;5.30;99.90;;;;;;5030792;28;20099;-81
2021/11/12 09:07:45;;;;;;;34.08;18.08;;;5.30;99.90;;;;;;5023944;28;20435;-81
2021/11/12 09:10:11;;;;;;;32.70;17.15;;;5.40;99.90;;;;;;5035606;28;20037;-82
2021/11/12 09:12:36;;;;;;;31.80;19.00;;;5.40;99.90;;;;;;5022068;28;20038;-82
2021/11/12 09:15:11;;;;;;;28.52;17.83;;;5.40;99.90;;;;;;5021092;28;20029;-82
2021/11/12 09:17:39;;;;;;;38.30;15.80;;;5.40;99.90;;;;;;5022310;28;20052;-82
2021/11/12 09:20:05;;;;;;;31.13;17.23;;;5.40;99.90;;;;;;5028723;28;20075;-82
2021/11/12 09:22:32;;;;;;;36.97;17.48;;;5.50;99.90;;;;;;5036948;28;20037;-82
2021/11/12 09:24:58;;;;;;;33.08;18.05;;;5.50;99.90;;;;;;5035726;28;20401;-82
2021/11/12 09:27:24;;;;;;;46.42;18.92;;;5.50;99.90;;;;;;5043070;28;20029;-82
2021/11/12 09:29:50;;;;;;;35.95;17.80;;;5.50;99.90;;;;;;5048434;28;20128;-81
2021/11/12 09:32:17;;;;;;;33.65;17.75;;;5.50;99.90;;;;;;5032719;28;20030;-82
2021/11/12 09:34:43;;;;;;;30.58;18.27;;;5.60;99.90;;;;;;5030362;28;20080;-82
2021/11/12 09:37:10;;;;;;;28.63;18.10;;;5.60;99.90;;;;;;5030074;28;20053;-82
2021/11/12 09:39:38;;;;;;;38.47;18.20;;;5.70;99.90;;;;;;5028321;28;20033;-81
2021/11/12 09:42:05;;;;;;;29.60;16.52;;;5.70;99.90;;;;;;5029674;28;20493;-83
2021/11/12 09:44:32;;;;;;;30.70;17.85;;;5.70;99.90;;;;;;5047455;28;20033;-81
2021/11/12 09:46:58;;;;;;;33.92;17.88;;;5.70;99.90;;;;;;5048854;28;20092;-82
2021/11/12 09:49:24;;;;;;;34.70;18.13;;;5.80;99.90;;;;;;5036528;28;20034;-81
2021/11/12 09:51:50;;;;;;;34.55;17.80;;;5.80;99.90;;;;;;5038754;28;20071;-81
2021/11/12 09:54:15;;;;;;;35.50;19.35;;;5.80;99.90;;;;;;5050200;28;20032;-81
2021/11/12 09:56:41;;;;;;;27.98;18.60;;;5.80;99.90;;;;;;5036858;28;20105;-81
2021/11/12 09:59:07;;;;;;;34.38;18.02;;;5.90;99.90;;;;;;5026483;28;20034;-82
2021/11/12 10:01:36;;;;;;;34.63;19.17;;;5.90;99.90;;;;;;5028815;28;20021;-81
2021/11/12 10:04:08;;;;;;;39.25;18.80;;;5.90;99.90;;;;;;5032242;28;20033;-81
2021/11/12 10:06:36;;;;;;;32.88;18.35;;;6.00;99.90;;;;;;5044953;28;20037;-81
2021/11/12 10:09:11;;;;;;;31.98;19.98;;;6.00;99.90;;;;;;5042283;28;20029;-82
2021/11/12 10:11:55;;;;;;;32.17;18.25;;;6.10;99.90;;;;;;5044659;28;20052;-80
2021/11/12 10:17:09;;;;;;;35.97;18.83;;;6.10;99.90;;;;;;5029567;28;20540;-81
2021/11/12 10:19:42;;;;;;;37.00;19.08;;;6.10;99.90;;;;;;5027908;28;20022;-81
2021/11/12 10:22:09;;;;;;;37.42;19.73;;;6.10;99.90;;;;;;5031207;28;20025;-81
2021/11/12 10:24:38;;;;;;;33.28;18.20;;;6.10;99.90;;;;;;5034093;28;20547;-82
2021/11/12 10:27:10;;;;;;;33.70;18.15;;;6.20;99.90;;;;;;5019917;28;20037;-81
2021/11/12 10:29:46;;;;;;;37.13;18.55;;;6.20;99.90;;;;;;5026216;28;20041;-81
2021/11/12 10:32:19;;;;;;;32.58;19.20;;;6.20;99.90;;;;;;5021063;28;20026;-83
2021/11/12 10:34:46;;;;;;;31.17;18.17;;;6.20;99.90;;;;;;5013015;28;20437;-81
2021/11/12 10:37:24;;;;;;;31.17;20.08;;;6.20;99.90;;;;;;5023619;28;20030;-82
2021/11/12 10:39:52;;;;;;;33.92;20.27;;;6.20;99.90;;;;;;5009573;28;20061;-83
2021/11/12 10:42:18;;;;;;;32.58;18.88;;;6.20;99.90;;;;;;5040446;28;20033;-83
2021/11/12 10:44:47;;;;;;;35.25;19.90;;;6.20;99.90;;;;;;5017531;28;20375;-82
2021/11/12 10:47:14;;;;;;;37.92;21.73;;;6.30;99.90;;;;;;5025699;28;20042;-82
2021/11/12 10:49:42;;;;;;;35.05;19.48;;;6.30;99.90;;;;;;5012679;28;20116;-82
2021/11/12 10:52:22;;;;;;;38.63;20.45;;;6.40;99.90;;;;;;5021355;28;20029;-81
2021/11/12 10:55:10;;;;;;;42.05;19.83;;;6.40;99.90;;;;;;5014791;28;20041;-82
2021/11/12 10:57:46;;;;;;;36.50;21.25;;;6.40;99.90;;;;;;5019823;28;20482;-82
2021/11/12 11:00:30;;;;;;;38.00;20.83;;;6.40;99.90;;;;;;5016779;28;20029;-83
2021/11/12 11:02:56;;;;;;;41.88;21.33;;;6.40;99.90;;;;;;5023935;28;20034;-83
2021/11/12 11:05:30;;;;;;;37.35;20.58;;;6.30;99.90;;;;;;5028775;28;20036;-83
2021/11/12 11:07:57;;;;;;;35.53;20.80;;;6.30;99.90;;;;;;5021960;28;20025;-82
2021/11/12 11:10:33;;;;;;;37.67;21.60;;;6.40;99.90;;;;;;5019630;28;20041;-83
2021/11/12 11:13:11;;;;;;;38.17;21.70;;;6.40;99.90;;;;;;5020095;28;20575;-82
2021/11/12 11:15:58;;;;;;;38.38;20.55;;;6.40;99.90;;;;;;5019616;28;20034;-83
2021/11/12 11:18:30;;;;;;;38.38;20.85;;;6.40;99.90;;;;;;5009813;28;20049;-82
2021/11/12 11:23:45;;;;;;;44.15;23.00;;;6.20;99.90;;;;;;5015355;28;20309;-83
2021/11/12 11:26:14;;;;;;;39.95;21.65;;;6.20;99.90;;;;;;5019341;28;20026;-83
2021/11/12 11:28:39;;;;;;;42.90;23.15;;;6.10;99.90;;;;;;5027164;28;20033;-82
2021/11/12 11:31:08;;;;;;;41.90;22.38;;;6.10;99.90;;;;;;5028001;28;20056;-83
2021/11/12 11:33:39;;;;;;;38.28;21.17;;;6.20;99.90;;;;;;5022367;28;20032;-82
2021/11/12 11:36:06;;;;;;;37.92;21.33;;;6.20;99.90;;;;;;5028547;28;20482;-82
2021/11/12 11:38:34;;;;;;;36.75;22.05;;;6.20;99.90;;;;;;5018667;28;20454;-82
2021/11/12 11:41:02;;;;;;;36.47;21.45;;;6.20;99.90;;;;;;5025033;28;20530;-82
2021/11/12 11:43:29;;;;;;;38.88;22.40;;;6.20;99.90;;;;;;5028060;28;20067;-82
2021/11/12 11:45:55;;;;;;;38.85;21.30;;;6.20;99.90;;;;;;5020166;28;20101;-81
2021/11/12 11:48:22;;;;;;;42.38;22.77;;;6.20;99.90;;;;;;5031363;28;20037;-82
2021/11/12 11:50:59;;;;;;;41.35;21.80;;;6.30;99.90;;;;;;5024007;28;20497;-82
2021/11/12 11:53:43;;;;;;;39.78;21.85;;;6.30;99.90;;;;;;5028747;28;20038;-82
2021/11/12 11:56:13;;;;;;;40.50;22.58;;;6.40;99.90;;;;;;5039664;28;20436;-82
2021/11/12 11:58:42;;;;;;;44.03;24.67;;;6.40;99.90;;;;;;5028876;28;20033;-82
2021/11/12 12:01:16;;;;;;;39.85;21.63;;;6.40;99.90;;;;;;5023840;28;20537;-82
2021/11/12 12:03:46;;;;;;;39.40;22.02;;;6.40;99.90;;;;;;5028660;28;20026;-82
2021/11/12 12:06:20;;;;;;;44.03;23.55;;;6.40;99.90;;;;;;5028762;28;20029;-82
2021/11/12 12:09:06;;;;;;;39.20;22.40;;;6.50;99.90;;;;;;5017508;28;20049;-83
2021/11/12 12:11:42;;;;;;;43.22;23.10;;;6.50;99.90;;;;;;5018102;28;20101;-82
2021/11/12 12:14:23;;;;;;;46.25;24.02;;;6.50;99.90;;;;;;5021844;28;20120;-82
2021/11/12 12:17:10;;;;;;;44.72;24.05;;;6.40;99.90;;;;;;5030578;28;20389;-83
2021/11/12 13:20:30;;;;;;;48.83;24.70;;;6.40;99.90;;;;;;5027074;28;20422;-81
2021/11/12 13:25:52;;;;;;;47.15;25.95;;;6.30;99.90;;;;;;5021363;28;20078;-82
2021/11/12 13:28:24;;;;;;;29.90;18.05;;;6.30;99.90;;;;;;5020262;28;20037;-82
2021/11/12 13:30:58;;;;;;;43.97;24.52;;;6.30;99.90;;;;;;5028587;28;20080;-83
2021/11/12 13:33:47;;;;;;;43.97;25.63;;;6.30;99.90;;;;;;5024312;28;20120;-82
2021/11/12 13:36:15;;;;;;;49.97;26.42;;;6.30;99.90;;;;;;5021523;28;20427;-82
2021/11/12 13:38:43;;;;;;;47.35;26.95;;;6.20;99.90;;;;;;5028389;28;20551;-82
2021/11/12 13:41:11;;;;;;;42.70;24.98;;;6.20;99.90;;;;;;5038161;28;20069;-82
2021/11/12 13:43:42;;;;;;;45.08;25.67;;;6.20;99.90;;;;;;5032773;28;20024;-82
2021/11/12 13:46:08;;;;;;;47.78;26.15;;;6.20;99.90;;;;;;5028718;28;20037;-82
2021/11/12 13:48:42;;;;;;;43.42;23.70;;;6.20;99.90;;;;;;5018792;28;20048;-82
2021/11/12 13:51:09;;;;;;;44.97;24.98;;;6.20;99.90;;;;;;5029392;28;20035;-80
2021/11/12 13:53:34;;;;;;;43.42;23.33;;;6.20;99.90;;;;;;5031151;28;20064;-83
2021/11/12 13:56:02;;;;;;;43.53;25.27;;;6.20;99.90;;;;;;5014456;28;20029;-81
2021/11/12 13:58:28;;;;;;;40.70;23.38;;;6.20;99.90;;;;;;5025368;28;20065;-83
2021/11/12 14:00:56;;;;;;;49.20;24.20;;;6.10;99.90;;;;;;5032334;28;20041;-83
2021/11/12 14:03:44;;;;;;;39.03;23.27;;;6.20;99.90;;;;;;5039243;28;20059;-83
2021/11/12 14:06:10;;;;;;;42.97;24.90;;;6.10;99.90;;;;;;5021715;28;20033;-81
2021/11/12 14:08:42;;;;;;;44.15;24.77;;;6.10;99.90;;;;;;5027209;28;20147;-82
2021/11/12 14:11:21;;;;;;;43.17;23.60;;;6.10;99.90;;;;;;5014674;28;20121;-81
2021/11/12 14:13:47;;;;;;;44.08;22.30;;;6.20;99.90;;;;;;5021637;28;20116;-81
2021/11/12 14:19:17;;;;;;;45.03;23.77;;;6.10;99.90;;;;;;5026475;28;20053;-81
2021/11/12 14:21:51;;;;;;;40.60;22.38;;;6.20;99.90;;;;;;5038033;28;20033;-81
2021/11/12 14:40:52;;;;;;;39.63;21.70;;;6.10;99.90;;;;;;5029719;28;20095;-82
2021/11/12 14:46:31;;;;;;;46.97;24.15;;;6.10;99.90;;;;;;5025750;28;20022;-82
2021/11/12 14:52:14;;;;;;;46.67;24.13;;;6.10;99.90;;;;;;5026438;28;20048;-83
2021/11/12 14:54:50;;;;;;;45.75;23.60;;;6.10;99.90;;;;;;5027511;28;20030;-82
2021/11/12 14:59:52;;;;;;;43.35;21.27;;;6.00;99.90;;;;;;5029113;28;20382;-82
2021/11/12 15:02:18;;;;;;;46.13;23.50;;;6.00;99.90;;;;;;5028939;28;20113;-82
2021/11/12 15:04:45;;;;;;;49.97;25.73;;;6.00;99.90;;;;;;5029156;28;20065;-81
2021/11/12 15:07:10;;;;;;;46.03;23.13;;;6.00;99.90;;;;;;5029079;28;20055;-81
2021/11/12 15:09:37;;;;;;;54.60;26.10;;;6.00;99.90;;;;;;5029179;28;20100;-82
2021/11/12 15:12:07;;;;;;;59.58;27.13;;;6.00;99.90;;;;;;5029015;28;20026;-82
2021/11/12 15:14:36;;;;;;;54.42;27.58;;;6.00;99.90;;;;;;5028371;28;20049;-82
2021/11/12 15:17:04;;;;;;;57.88;27.15;;;6.00;99.90;;;;;;5029465;28;20061;-81
2021/11/12 15:19:33;;;;;;;55.40;26.90;;;6.00;99.90;;;;;;5027241;28;20033;-81
2021/11/12 15:22:09;;;;;;;58.90;28.13;;;6.00;99.90;;;;;;5029836;28;20025;-81
2021/11/12 15:24:45;;;;;;;64.18;30.88;;;6.10;99.90;;;;;;5027732;28;20037;-82
2021/11/12 15:27:19;;;;;;;66.53;30.58;;;6.10;99.90;;;;;;5030438;28;20060;-82
2021/11/12 15:29:58;;;;;;;66.05;30.60;;;6.10;99.90;;;;;;5032825;28;20083;-81
2021/11/12 15:32:28;;;;;;;66.30;30.75;;;6.10;99.90;;;;;;5048204;28;20482;-82
2021/11/12 15:34:59;;;;;;;66.00;31.48;;;6.10;99.90;;;;;;5032972;28;20083;-82
2021/11/12 15:37:29;;;;;;;64.57;31.33;;;6.10;99.90;;;;;;5031466;28;20038;-81
2021/11/12 15:42:47;;;;;;;67.47;32.65;;;6.10;99.90;;;;;;5032593;28;20076;-81
2021/11/12 15:45:17;;;;;;;68.85;32.83;;;6.10;99.90;;;;;;5031655;28;20506;-81
2021/11/12 15:47:45;;;;;;;67.75;31.75;;;6.10;99.90;;;;;;5047521;28;20029;-82
2021/11/12 15:50:17;;;;;;;69.32;33.05;;;6.20;99.90;;;;;;5033184;28;20056;-82
2021/11/12 15:53:18;;;;;;;69.22;33.85;;;6.20;99.90;;;;;;5032903;28;20033;-82
2021/11/12 15:55:44;;;;;;;68.43;32.97;;;6.20;99.90;;;;;;5034724;28;20042;-82
2021/11/12 16:00:54;;;;;;;70.70;33.35;;;6.20;99.90;;;;;;5032843;28;20034;-82
2021/11/12 16:06:18;;;;;;;63.80;30.25;;;6.30;99.90;;;;;;5032938;28;20079;-82
2021/11/12 16:11:22;;;;;;;65.47;31.90;;;6.20;99.90;;;;;;5032170;28;20037;-82
2021/11/12 16:19:06;;;;;;;67.00;31.98;;;6.20;99.90;;;;;;5032116;28;20117;-82
2021/11/12 16:21:54;;;;;;;74.40;33.83;;;6.30;99.90;;;;;;5032118;28;20018;-82
2021/11/12 16:27:05;;;;;;;69.35;31.90;;;6.30;99.90;;;;;;5032216;28;20040;-82
2021/11/12 16:29:39;;;;;;;67.20;31.40;;;6.20;99.90;;;;;;5030698;28;20033;-82
2021/11/12 16:32:07;;;;;;;71.90;32.30;;;6.30;99.90;;;;;;5031405;28;20026;-82
2021/11/12 16:34:39;;;;;;;68.68;31.45;;;6.30;99.90;;;;;;5031820;28;20394;-82
2021/11/12 16:37:06;;;;;;;74.35;32.60;;;6.40;99.90;;;;;;5033098;28;20037;-82
2021/11/12 16:42:08;;;;;;;68.85;32.78;;;6.40;99.90;;;;;;5031633;28;20040;-81
2021/11/12 16:49:50;;;;;;;67.47;30.10;;;6.40;99.90;;;;;;5031135;28;20029;-81
2021/11/12 16:52:32;;;;;;;69.70;31.70;;;6.40;99.90;;;;;;5031286;28;20119;-82
2021/11/12 16:55:23;;;;;;;68.07;28.83;;;6.40;99.90;;;;;;5031897;28;20025;-81
2021/11/12 16:58:08;;;;;;;58.90;27.55;;;6.40;99.90;;;;;;5030971;28;20168;-82
2021/11/12 17:03:42;;;;;;;64.32;28.48;;;6.30;99.90;;;;;;5031215;28;20044;-82
2021/11/12 17:09:11;;;;;;;67.88;30.83;;;6.20;99.90;;;;;;5030732;28;20472;-82
2021/11/12 17:22:37;;;;;;;72.93;32.03;;;6.20;99.90;;;;;;5011129;28;20040;-82
2021/11/12 17:49:16;;;;;;;64.93;25.98;;;6.10;99.90;;;;;;5030218;28;20120;-82
2021/11/12 18:02:28;;;;;;;47.83;22.63;;;6.00;99.90;;;;;;5029804;28;20068;-82
2021/11/12 18:10:33;;;;;;;49.05;22.38;;;5.90;99.90;;;;;;5029935;28;20025;-82
2021/11/12 18:13:20;;;;;;;61.85;22.88;;;5.80;99.90;;;;;;5030048;28;20396;-83
2021/11/12 21:46:48;;;;;;;24.70;15.02;;;4.90;99.90;;;;;;5031175;28;20089;-82
2021/11/12 21:49:15;;;;;;;22.63;15.13;;;4.90;99.90;;;;;;5029032;28;20120;-82
2021/11/12 21:51:42;;;;;;;24.20;15.80;;;4.90;99.90;;;;;;5037963;28;20049;-82
2021/11/12 21:54:08;;;;;;;24.50;15.90;;;4.90;99.90;;;;;;5042423;28;20032;-81
2021/11/12 21:56:34;;;;;;;25.95;16.25;;;4.90;99.90;;;;;;5041414;28;20047;-81
2021/11/12 21:59:01;;;;;;;26.15;17.10;;;4.90;99.90;;;;;;5041864;28;20067;-81
2021/11/12 22:01:27;;;;;;;27.98;16.67;;;5.00;99.90;;;;;;5037013;28;20033;-81
2021/11/12 22:03:53;;;;;;;20.92;13.85;;;5.00;99.90;;;;;;5031281;28;20466;-81
2021/11/12 22:06:19;;;;;;;25.65;15.32;;;4.90;99.90;;;;;;5031189;28;20061;-81
2021/11/12 22:08:45;;;;;;;21.40;14.80;;;5.00;99.90;;;;;;5028751;28;20076;-81
2021/11/12 22:11:10;;;;;;;21.60;15.27;;;4.90;99.90;;;;;;5028349;28;20038;-82
2021/11/12 22:13:38;;;;;;;23.17;15.52;;;4.90;99.90;;;;;;5030012;28;20044;-83